עמוד ראשי
METAR-TAF:

METAR-TAF

שדות תעופה :

סלוניקי, יוון

נמל התעופה הבינלאומי סלוניקי מקדוניה

קו רוחב: 40-31N, קו אורך: 022-58E, גובה: 8מטר

תצפית מזג אוויר נוכחית

הדו"ח נערך לפני 27דקות, בשעה 08:20 UTC
רוח 6קשר מכיוון מערב/צפון-מערב
טמפרטורת 5 צלסיוס
לחות 93%
לחץ 1015 hPa
ראות: 8000מטר
מעט עננים בגובה 600רגל
עננים בינוניים בגובה 3500רגל
גשם קל

METAR: LGTS 170820Z 29006KT 8000 -RA FEW006 BKN035 05/04 Q1015 NOSIG

זמן: 10:47 (08:47 UTC)

תחזית

הדו"ח נערך לפני 3 שעות ו 47דקות, בשעה 05:00 UTC
תחזית בתוקף מ 17 ב 06 UTC עד 18 ב 06 UTC
רוח 15קשר מכיוון צפון/צפון-מערב
ראות 10 קילומטר או יותר
מעט עננים בגובה 800רגל
עננים בינוניים בגובה 2500רגל
זמנית מ -
17 ב 06 UTC עד 18 ב 06 UTC
ראות: 6000מטר
עננים פזורים בגובה 600רגל
עננים בינוניים בגובה 2000רגל
גשם

TAF: LGTS 170500Z 1706/1806 33015KT 9999 FEW008 BKN025 TEMPO 1706/1806 6000 RA SCT006 BKN020

תצפיות ותחזיות מזג אוויר לגבי יותר מ- 4,000 שדות תעופה ברחבי העולם. דוחות METAR ו- TAF.

התחנות הזמינות מסומנות בנקודות צהובות ואדומות על גבי המפה.

העבר את העכבר לנקודה הצבעונית על מנת לראות את שם התחנה.

לאחר מכן, לחץ כדי לראות את תוכן ואת תחזיות מזג האוויר.

כדי לשנות את המפה: לחץ על הכפתורים הירוקים עם הפלוס השחור כדי להתקרב; על הכפתור הירוק עם המקף כדי להתרחק; או בחיצים הירוקים למפות סמוכות.


METAR-TAF: